createdAt,value
2019-02-15T00:02:25.061Z,17.23
2019-02-15T00:04:53.405Z,16.87
2019-02-15T00:07:21.767Z,18.80
2019-02-15T00:09:50.090Z,17.03
2019-02-15T00:12:18.402Z,18.33
2019-02-15T00:14:48.204Z,17.90
2019-02-15T00:17:23.964Z,17.63
2019-02-15T00:19:54.073Z,17.57
2019-02-15T00:22:22.406Z,16.57
2019-02-15T00:24:50.731Z,17.23
2019-02-15T00:27:19.055Z,18.33
2019-02-15T00:29:47.399Z,18.67
2019-02-15T00:32:16.246Z,18.53
2019-02-15T00:34:44.558Z,17.77
2019-02-15T00:37:13.003Z,18.27
2019-02-15T00:39:41.344Z,17.73
2019-02-15T00:42:09.702Z,18.77
2019-02-15T00:44:38.027Z,18.77
2019-02-15T00:47:31.063Z,18.50
2019-02-15T00:50:30.385Z,17.30
2019-02-15T00:53:20.532Z,17.53
2019-02-15T00:56:14.022Z,17.47
2019-02-15T00:59:01.895Z,17.50
2019-02-15T01:01:55.674Z,16.73
2019-02-15T01:04:55.000Z,17.03
2019-02-15T01:07:41.059Z,18.27
2019-02-15T01:10:28.393Z,17.53
2019-02-15T01:13:01.829Z,17.43
2019-02-15T01:15:30.482Z,17.93
2019-02-15T01:17:59.336Z,17.00
2019-02-15T01:20:27.960Z,16.73
2019-02-15T01:22:56.587Z,17.43
2019-02-15T01:25:26.473Z,17.30
2019-02-15T01:28:09.212Z,18.27
2019-02-15T01:30:54.988Z,16.87
2019-02-15T01:33:45.751Z,17.90
2019-02-15T01:36:33.033Z,17.90
2019-02-15T01:39:20.255Z,19.27
2019-02-15T01:42:18.784Z,18.93
2019-02-15T01:44:54.808Z,19.03
2019-02-15T01:47:33.362Z,18.40
2019-02-15T01:50:01.730Z,17.97
2019-02-15T01:52:30.080Z,18.80
2019-02-15T01:54:58.400Z,18.87
2019-02-15T01:57:26.735Z,19.93
2019-02-15T01:59:55.146Z,18.70
2019-02-15T02:02:25.052Z,18.60
2019-02-15T02:04:53.526Z,18.03
2019-02-15T02:07:21.848Z,18.40
2019-02-15T02:09:50.211Z,17.40
2019-02-15T02:12:18.616Z,18.30
2019-02-15T02:14:47.067Z,18.10
2019-02-15T02:17:15.398Z,17.60
2019-02-15T02:19:43.851Z,17.50
2019-02-15T02:22:12.239Z,17.13
2019-02-15T02:24:40.572Z,17.73
2019-02-15T02:27:08.924Z,18.67
2019-02-15T02:29:37.258Z,17.93
2019-02-15T02:32:05.603Z,18.33
2019-02-15T02:34:33.922Z,19.07
2019-02-15T02:37:02.291Z,17.73
2019-02-15T02:39:30.650Z,17.87
2019-02-15T02:41:59.045Z,17.57
2019-02-15T02:44:27.501Z,16.63
2019-02-15T02:46:55.798Z,19.27
2019-02-15T02:49:24.142Z,19.10
2019-02-15T02:51:52.514Z,17.57
2019-02-15T02:54:20.844Z,18.43
2019-02-15T02:56:49.169Z,19.17
2019-02-15T02:59:17.611Z,18.43
2019-02-15T03:01:45.964Z,18.07
2019-02-15T03:04:14.311Z,17.53
2019-02-15T03:06:42.634Z,17.60
2019-02-15T03:09:10.970Z,18.80
2019-02-15T03:11:39.290Z,18.70
2019-02-15T03:14:11.601Z,18.87
2019-02-15T03:16:37.610Z,18.70
2019-02-15T03:19:05.940Z,18.47
2019-02-15T03:21:34.310Z,17.67
2019-02-15T03:24:02.756Z,18.77
2019-02-15T03:26:31.071Z,18.73
2019-02-15T03:28:59.422Z,18.57
2019-02-15T03:31:27.928Z,17.13
2019-02-15T03:33:56.285Z,18.47
2019-02-15T03:36:38.295Z,17.60
2019-02-15T03:39:14.633Z,18.47
2019-02-15T03:41:42.946Z,18.23
2019-02-15T03:44:21.378Z,18.57
2019-02-15T03:46:41.493Z,18.90
2019-02-15T03:49:09.798Z,18.27
2019-02-15T03:51:38.126Z,18.30
2019-02-15T03:54:06.528Z,18.87
2019-02-15T03:56:34.907Z,19.47
2019-02-15T03:59:03.760Z,18.13
2019-02-15T04:01:32.247Z,17.20
2019-02-15T04:04:00.636Z,18.77
2019-02-15T04:06:29.128Z,18.33
2019-02-15T04:08:57.566Z,17.90
2019-02-15T04:11:25.920Z,18.57
2019-02-15T04:13:54.269Z,18.00
2019-02-15T04:16:22.599Z,19.23
2019-02-15T04:18:50.927Z,17.77
2019-02-15T04:21:19.252Z,18.60
2019-02-15T04:23:47.599Z,18.07
2019-02-15T04:26:15.999Z,17.50
2019-02-15T04:28:44.350Z,17.73
2019-02-15T04:31:12.674Z,17.83
2019-02-15T04:33:41.085Z,17.63
2019-02-15T04:36:09.367Z,17.00
2019-02-15T04:38:37.690Z,15.90
2019-02-15T04:41:05.999Z,17.13
2019-02-15T04:43:34.436Z,17.03
2019-02-15T04:46:02.759Z,17.67
2019-02-15T04:48:31.079Z,17.70
2019-02-15T04:50:59.407Z,18.03
2019-02-15T04:53:27.735Z,17.33
2019-02-15T04:55:56.068Z,17.60
2019-02-15T04:58:24.523Z,16.63
2019-02-15T05:00:52.846Z,16.53
2019-02-15T05:03:21.177Z,16.23
2019-02-15T05:05:49.546Z,16.40
2019-02-15T05:08:17.861Z,16.80
2019-02-15T05:10:46.246Z,16.37
2019-02-15T05:13:14.612Z,16.23
2019-02-15T05:15:42.928Z,16.33
2019-02-15T05:18:11.300Z,17.03
2019-02-15T05:20:39.648Z,16.40
2019-02-15T05:23:07.995Z,15.60
2019-02-15T05:25:36.338Z,16.27
2019-02-15T05:28:04.776Z,15.77
2019-02-15T05:30:33.156Z,17.17
2019-02-15T05:33:01.471Z,16.67
2019-02-15T05:35:29.794Z,15.73
2019-02-15T05:37:58.124Z,16.70
2019-02-15T05:40:26.479Z,14.60
2019-02-15T05:42:54.823Z,16.17
2019-02-15T05:45:23.187Z,14.97
2019-02-15T05:47:51.524Z,16.30
2019-02-15T05:50:19.853Z,15.53
2019-02-15T05:52:48.174Z,15.83
2019-02-15T05:55:16.525Z,16.23
2019-02-15T05:57:44.867Z,15.80
2019-02-15T06:00:13.291Z,16.43
2019-02-15T06:02:41.779Z,15.17
2019-02-15T06:05:10.230Z,15.80
2019-02-15T06:07:38.587Z,17.13
2019-02-15T06:10:07.390Z,16.00
2019-02-15T06:12:35.842Z,16.47
2019-02-15T06:15:14.899Z,16.53
2019-02-15T06:17:36.084Z,14.97
2019-02-15T06:20:04.544Z,15.40
2019-02-15T06:22:32.886Z,16.27
2019-02-15T06:25:01.228Z,17.10
2019-02-15T06:27:29.571Z,16.17
2019-02-15T06:29:57.932Z,15.53
2019-02-15T06:32:26.260Z,16.87
2019-02-15T06:34:54.607Z,15.57
2019-02-15T06:37:22.993Z,14.77
2019-02-15T06:39:51.335Z,14.00
2019-02-15T06:42:19.643Z,16.10
2019-02-15T06:44:48.062Z,15.20
2019-02-15T06:47:16.393Z,15.87
2019-02-15T06:49:44.727Z,15.00
2019-02-15T06:52:13.067Z,15.90
2019-02-15T06:54:41.420Z,16.33
2019-02-15T06:57:09.753Z,14.97
2019-02-15T06:59:52.398Z,15.73
2019-02-15T07:02:37.799Z,16.03
2019-02-15T07:05:25.601Z,16.73
2019-02-15T07:07:54.287Z,15.90
2019-02-15T07:10:22.715Z,16.40
2019-02-15T07:12:51.072Z,15.97
2019-02-15T07:15:19.478Z,15.37
2019-02-15T07:17:48.074Z,16.60
2019-02-15T07:20:16.738Z,15.17
2019-02-15T07:22:45.210Z,16.50
2019-02-15T07:25:13.543Z,16.07
2019-02-15T07:27:41.934Z,18.93
2019-02-15T07:30:11.245Z,16.60
2019-02-15T07:32:39.629Z,15.30
2019-02-15T07:35:08.132Z,16.90
2019-02-15T07:37:36.629Z,16.83
2019-02-15T07:40:05.578Z,17.10
2019-02-15T07:42:34.067Z,16.63
2019-02-15T07:45:02.407Z,16.43
2019-02-15T07:47:30.748Z,15.87
2019-02-15T07:49:59.082Z,16.77
2019-02-15T07:52:27.418Z,16.00
2019-02-15T07:54:55.756Z,15.87
2019-02-15T07:57:24.110Z,15.60
2019-02-15T07:59:52.447Z,17.33
2019-02-15T08:02:20.767Z,15.93
2019-02-15T08:04:49.113Z,16.00
2019-02-15T08:07:17.455Z,14.27
2019-02-15T08:09:45.864Z,15.80
2019-02-15T08:12:14.197Z,16.33
2019-02-15T08:14:42.564Z,16.80
2019-02-15T08:17:10.891Z,17.60
2019-02-15T08:19:39.245Z,16.33
2019-02-15T08:22:08.456Z,16.20
2019-02-15T08:24:36.812Z,17.40
2019-02-15T08:27:05.207Z,16.70
2019-02-15T08:29:33.565Z,16.83
2019-02-15T08:32:01.942Z,17.13
2019-02-15T08:34:30.274Z,15.67
2019-02-15T08:36:58.627Z,15.50
2019-02-15T08:39:26.954Z,17.67
2019-02-15T08:42:01.307Z,17.67
2019-02-15T08:44:25.328Z,17.30
2019-02-15T08:46:53.711Z,15.90
2019-02-15T08:49:22.078Z,15.67
2019-02-15T08:51:50.423Z,18.10
2019-02-15T08:54:18.776Z,16.97
2019-02-15T08:56:47.159Z,18.27
2019-02-15T08:59:15.503Z,16.40
2019-02-15T09:01:45.391Z,17.30
2019-02-15T09:04:13.718Z,16.40
2019-02-15T09:06:42.064Z,16.73
2019-02-15T09:09:10.417Z,17.53
2019-02-15T09:11:38.763Z,16.77
2019-02-15T09:14:07.263Z,18.10
2019-02-15T09:16:35.627Z,16.00
2019-02-15T09:19:03.967Z,15.67
2019-02-15T09:21:32.295Z,15.50
2019-02-15T09:24:00.648Z,15.30
2019-02-15T09:26:28.988Z,14.23
2019-02-15T09:29:00.855Z,14.70
2019-02-15T09:31:29.216Z,14.63
2019-02-15T09:33:57.581Z,15.67
2019-02-15T09:36:25.920Z,15.17
2019-02-15T09:38:54.356Z,15.40
2019-02-15T09:41:22.677Z,14.87
2019-02-15T09:43:51.027Z,16.13
2019-02-15T09:46:20.384Z,15.40
2019-02-15T09:48:49.371Z,15.47
2019-02-15T09:51:17.749Z,14.13
2019-02-15T09:53:46.219Z,16.00
2019-02-15T09:56:14.607Z,15.70
2019-02-15T09:58:42.935Z,14.43
2019-02-15T10:01:11.395Z,13.47
2019-02-15T10:03:40.153Z,17.43
2019-02-15T10:06:09.198Z,15.27
2019-02-15T10:08:38.380Z,16.90
2019-02-15T10:11:07.067Z,12.43
2019-02-15T10:13:36.259Z,12.57
2019-02-15T10:16:04.655Z,12.50
2019-02-15T10:18:33.144Z,12.57
2019-02-15T10:21:01.575Z,12.20
2019-02-15T10:23:29.957Z,11.87
2019-02-15T10:25:58.271Z,13.37
2019-02-15T10:28:26.594Z,13.23
2019-02-15T10:30:55.048Z,13.00
2019-02-15T10:33:23.379Z,13.07
2019-02-15T10:35:51.745Z,12.17
2019-02-15T10:38:20.115Z,13.17
2019-02-15T10:40:48.468Z,13.10
2019-02-15T10:43:16.934Z,11.80
2019-02-15T10:45:45.305Z,12.33
2019-02-15T10:48:13.725Z,13.00
2019-02-15T10:50:42.078Z,11.70
2019-02-15T10:53:11.050Z,11.57
2019-02-15T10:55:39.860Z,10.17
2019-02-15T10:58:08.179Z,10.57
2019-02-15T11:00:36.639Z,11.50
2019-02-15T11:03:05.136Z,11.10
2019-02-15T11:05:33.456Z,10.83
2019-02-15T11:08:01.822Z,11.80
2019-02-15T11:10:31.891Z,11.53
2019-02-15T11:13:00.169Z,11.87
2019-02-15T11:15:28.537Z,11.53
2019-02-15T11:17:57.002Z,12.87
2019-02-15T11:20:25.459Z,13.20
2019-02-15T11:22:53.807Z,13.57
2019-02-15T11:25:22.231Z,11.63
2019-02-15T11:27:50.619Z,11.63
2019-02-15T11:30:19.092Z,12.20
2019-02-15T11:32:47.477Z,12.90
2019-02-15T11:35:15.848Z,12.07
2019-02-15T11:37:44.192Z,11.60
2019-02-15T11:40:13.105Z,10.77
2019-02-15T11:42:41.598Z,12.33
2019-02-15T11:45:10.845Z,11.57
2019-02-15T11:47:39.185Z,12.60
2019-02-15T11:50:08.283Z,11.80
2019-02-15T11:52:36.758Z,11.40
2019-02-15T11:55:05.561Z,10.83
2019-02-15T11:57:33.929Z,9.67
2019-02-15T12:00:02.263Z,10.03
2019-02-15T12:02:30.610Z,9.20
2019-02-15T12:04:59.067Z,9.80
2019-02-15T12:07:27.409Z,10.43
2019-02-15T12:10:09.651Z,10.10
2019-02-15T12:12:26.278Z,9.83
2019-02-15T12:14:54.695Z,9.80
2019-02-15T12:17:23.123Z,9.63
2019-02-15T12:19:51.655Z,9.83
2019-02-15T12:22:20.146Z,9.77
2019-02-15T12:24:48.591Z,11.50
2019-02-15T12:27:17.085Z,9.73
2019-02-15T12:29:45.652Z,10.10
2019-02-15T12:32:13.970Z,10.70
2019-02-15T12:34:42.380Z,11.37
2019-02-15T12:37:10.743Z,10.03
2019-02-15T12:39:39.234Z,11.10
2019-02-15T12:42:07.680Z,10.27
2019-02-15T12:44:36.100Z,11.40
2019-02-15T12:47:04.463Z,11.40
2019-02-15T12:49:32.856Z,10.83
2019-02-15T12:52:01.322Z,10.70
2019-02-15T12:54:29.719Z,10.73
2019-02-15T12:56:58.191Z,12.30
2019-02-15T12:59:26.566Z,10.17
2019-02-15T13:01:54.966Z,11.20
2019-02-15T13:04:24.016Z,10.20
2019-02-15T13:06:52.821Z,10.57
2019-02-15T13:09:21.359Z,10.33
2019-02-15T13:11:49.804Z,11.77
2019-02-15T13:14:18.219Z,11.37
2019-02-15T13:16:46.691Z,11.43
2019-02-15T13:19:15.044Z,10.30
2019-02-15T13:21:46.037Z,11.10
2019-02-15T13:24:14.533Z,11.33
2019-02-15T13:26:42.976Z,12.20
2019-02-15T13:29:11.547Z,12.73
2019-02-15T13:31:40.547Z,11.33
2019-02-15T13:34:08.955Z,11.50
2019-02-15T13:36:37.508Z,10.83
2019-02-15T13:39:06.585Z,11.80
2019-02-15T13:41:34.971Z,11.50
2019-02-15T13:44:03.336Z,11.50
2019-02-15T13:46:33.277Z,11.83
2019-02-15T13:49:01.830Z,12.63
2019-02-15T13:51:30.506Z,11.87
2019-02-15T13:53:59.258Z,11.30
2019-02-15T13:56:27.938Z,12.10
2019-02-15T13:58:56.685Z,12.60
2019-02-15T14:01:25.519Z,12.73
2019-02-15T14:03:54.161Z,11.30
2019-02-15T14:06:22.912Z,12.70
2019-02-15T14:08:51.745Z,11.67
2019-02-15T14:11:20.467Z,12.27
2019-02-15T14:13:49.496Z,11.83
2019-02-15T14:16:17.927Z,12.70
2019-02-15T14:18:46.419Z,12.30
2019-02-15T14:21:14.950Z,12.33
2019-02-15T14:23:43.703Z,12.53
2019-02-15T14:26:12.305Z,12.20
2019-02-15T14:28:40.724Z,11.87
2019-02-15T14:31:09.232Z,12.80
2019-02-15T14:33:37.720Z,13.57
2019-02-15T14:36:08.234Z,12.40
2019-02-15T14:38:36.227Z,13.90
2019-02-15T14:41:04.707Z,12.40
2019-02-15T14:43:33.145Z,13.53
2019-02-15T14:46:01.545Z,19.73
2019-02-15T14:48:29.983Z,15.47
2019-02-15T14:50:58.471Z,13.80
2019-02-15T14:53:26.922Z,12.57
2019-02-15T14:55:55.296Z,14.17
2019-02-15T14:58:23.965Z,13.47
2019-02-15T15:00:52.884Z,13.57
2019-02-15T15:03:21.241Z,14.23
2019-02-15T15:05:49.608Z,16.90
2019-02-15T15:08:17.979Z,14.83
2019-02-15T15:10:46.483Z,15.77
2019-02-15T15:13:14.939Z,15.17
2019-02-15T15:15:43.330Z,12.73
2019-02-15T15:18:13.458Z,14.37
2019-02-15T15:20:41.720Z,15.63
2019-02-15T15:23:10.261Z,14.83
2019-02-15T15:25:38.761Z,14.80
2019-02-15T15:28:07.105Z,16.37
2019-02-15T15:30:35.616Z,16.00
2019-02-15T15:33:04.029Z,16.17
2019-02-15T15:35:32.397Z,15.23
2019-02-15T15:38:00.815Z,16.23
2019-02-15T15:40:29.204Z,15.67
2019-02-15T15:42:57.693Z,15.40
2019-02-15T15:45:26.373Z,15.23
2019-02-15T15:47:54.831Z,15.57
2019-02-15T15:50:23.223Z,15.73
2019-02-15T15:52:51.602Z,15.43
2019-02-15T15:55:20.127Z,15.87
2019-02-15T15:57:48.562Z,15.83
2019-02-15T16:00:17.152Z,16.37
2019-02-15T16:02:45.607Z,15.37
2019-02-15T16:05:14.191Z,14.97
2019-02-15T16:07:43.598Z,14.93
2019-02-15T16:10:12.535Z,13.87
2019-02-15T16:12:40.922Z,14.43
2019-02-15T16:15:09.832Z,15.90
2019-02-15T16:17:38.219Z,15.03
2019-02-15T16:20:07.185Z,14.67
2019-02-15T16:22:35.746Z,15.30
2019-02-15T16:25:04.285Z,13.67
2019-02-15T16:27:32.700Z,14.20
2019-02-15T16:30:01.065Z,14.80
2019-02-15T16:32:29.535Z,14.13
2019-02-15T16:34:58.092Z,13.07
2019-02-15T16:37:26.588Z,15.03
2019-02-15T16:39:55.079Z,15.07
2019-02-15T16:42:23.434Z,14.27
2019-02-15T16:44:51.804Z,15.57
2019-02-15T16:47:20.152Z,14.50
2019-02-15T16:49:48.553Z,13.63
2019-02-15T16:52:16.929Z,13.90
2019-02-15T16:54:45.358Z,13.60
2019-02-15T16:57:13.818Z,15.37
2019-02-15T16:59:42.174Z,14.70
2019-02-15T17:02:10.542Z,13.50
2019-02-15T17:04:38.915Z,14.17
2019-02-15T17:07:08.391Z,14.53
2019-02-15T17:09:36.795Z,13.20
2019-02-15T17:12:05.331Z,13.80
2019-02-15T17:14:33.790Z,13.47
2019-02-15T17:17:02.198Z,13.80
2019-02-15T17:19:30.575Z,13.93
2019-02-15T17:21:59.071Z,12.80
2019-02-15T17:24:27.483Z,13.97
2019-02-15T17:26:55.965Z,13.93
2019-02-15T17:29:24.385Z,13.90
2019-02-15T17:31:53.985Z,14.47
2019-02-15T17:34:22.550Z,12.67
2019-02-15T17:36:51.257Z,12.87
2019-02-15T17:39:19.719Z,14.30
2019-02-15T17:41:48.183Z,13.03
2019-02-15T17:44:16.579Z,14.20
2019-02-15T17:46:45.079Z,13.77
2019-02-15T17:49:13.430Z,15.07
2019-02-15T17:51:41.810Z,14.27
2019-02-15T17:54:10.196Z,15.23
2019-02-15T17:56:38.570Z,15.30
2019-02-15T17:59:07.065Z,15.80
2019-02-15T18:01:35.447Z,15.97
2019-02-15T18:04:03.881Z,17.27
2019-02-15T18:06:32.286Z,17.07
2019-02-15T18:09:00.712Z,17.33
2019-02-15T18:11:29.250Z,15.40
2019-02-15T18:13:59.454Z,16.23
2019-02-15T18:16:27.888Z,15.70
2019-02-15T18:18:57.875Z,15.63
2019-02-15T18:21:26.384Z,16.73
2019-02-15T18:23:55.596Z,15.83
2019-02-15T18:26:23.926Z,17.10
2019-02-15T18:28:52.505Z,16.03
2019-02-15T18:31:20.834Z,22.37
2019-02-15T18:33:49.178Z,17.53
2019-02-15T18:36:17.574Z,17.40
2019-02-15T18:38:45.988Z,17.20
2019-02-15T18:41:14.713Z,16.80
2019-02-15T18:43:43.538Z,16.07
2019-02-15T18:46:12.291Z,15.13
2019-02-15T18:48:40.615Z,17.07
2019-02-15T18:51:09.680Z,16.30
2019-02-15T18:53:38.241Z,16.17
2019-02-15T18:56:06.738Z,16.27
2019-02-15T18:58:35.281Z,16.57
2019-02-15T19:01:03.838Z,16.73
2019-02-15T19:03:32.511Z,16.33
2019-02-15T19:06:00.858Z,16.17
2019-02-15T19:08:29.683Z,16.60
2019-02-15T19:10:58.464Z,15.63
2019-02-15T19:13:27.042Z,17.03
2019-02-15T19:15:56.557Z,15.60
2019-02-15T19:18:24.974Z,15.57
2019-02-15T19:20:53.373Z,16.67
2019-02-15T19:23:21.952Z,16.00
2019-02-15T19:25:50.314Z,15.73
2019-02-15T19:28:18.672Z,16.20
2019-02-15T19:30:47.392Z,15.63
2019-02-15T19:33:15.734Z,16.30
2019-02-15T19:35:44.099Z,17.10
2019-02-15T19:38:12.566Z,16.90
2019-02-15T19:40:41.006Z,17.07
2019-02-15T19:43:09.546Z,15.40
2019-02-15T19:45:38.020Z,18.97
2019-02-15T19:48:06.387Z,18.37
2019-02-15T19:50:34.769Z,17.53
2019-02-15T19:53:03.116Z,18.73
2019-02-15T19:55:31.689Z,19.50
2019-02-15T19:58:00.017Z,19.03
2019-02-15T20:00:28.500Z,18.37
2019-02-15T20:02:56.941Z,18.63
2019-02-15T20:05:25.402Z,18.23
2019-02-15T20:07:53.805Z,47.53
2019-02-15T20:10:22.446Z,22.27
2019-02-15T20:12:51.295Z,19.10
2019-02-15T20:15:20.189Z,19.30
2019-02-15T20:17:50.182Z,18.90
2019-02-15T20:20:19.576Z,20.07
2019-02-15T20:22:48.023Z,18.90
2019-02-15T20:25:16.396Z,19.67
2019-02-15T20:27:44.817Z,19.13
2019-02-15T20:30:14.584Z,19.97
2019-02-15T20:32:43.096Z,18.90
2019-02-15T20:35:13.481Z,17.60
2019-02-15T20:37:41.697Z,17.40
2019-02-15T20:40:10.688Z,19.23
2019-02-15T20:42:39.359Z,18.80
2019-02-15T20:45:09.315Z,19.60
2019-02-15T20:47:37.833Z,19.00
2019-02-15T20:50:06.306Z,21.90
2019-02-15T20:52:35.261Z,22.07
2019-02-15T20:55:03.777Z,22.47
2019-02-15T20:57:32.211Z,23.47
2019-02-15T21:00:00.721Z,22.30
2019-02-15T21:02:29.884Z,20.80
2019-02-15T21:04:58.469Z,21.60
2019-02-15T21:07:27.034Z,19.07
2019-02-15T21:09:55.549Z,17.07
2019-02-15T21:12:24.036Z,16.67
2019-02-15T21:14:52.668Z,17.13
2019-02-15T21:17:21.131Z,16.63
2019-02-15T21:19:49.533Z,16.20
2019-02-15T21:22:18.017Z,16.93
2019-02-15T21:24:47.090Z,16.47
2019-02-15T21:27:15.698Z,15.97
2019-02-15T21:29:44.328Z,17.00
2019-02-15T21:32:12.956Z,15.50
2019-02-15T21:34:41.473Z,16.27
2019-02-15T21:37:10.362Z,17.57
2019-02-15T21:39:41.045Z,17.50
2019-02-15T21:42:09.399Z,15.70
2019-02-15T21:44:37.800Z,16.47
2019-02-15T21:47:06.166Z,16.43
2019-02-15T21:49:34.971Z,16.30
2019-02-15T21:52:03.631Z,15.77
2019-02-15T21:54:32.724Z,14.50
2019-02-15T21:57:01.414Z,15.13
2019-02-15T21:59:29.900Z,16.03
2019-02-15T22:01:58.376Z,14.50
2019-02-15T22:04:26.951Z,16.43
2019-02-15T22:06:55.536Z,16.17
2019-02-15T22:09:24.188Z,17.50
2019-02-15T22:11:54.541Z,16.17
2019-02-15T22:14:23.709Z,16.37
2019-02-15T22:16:52.310Z,15.37
2019-02-15T22:19:20.698Z,16.63
2019-02-15T22:21:49.114Z,16.07
2019-02-15T22:24:17.667Z,18.37
2019-02-15T22:26:46.219Z,19.27
2019-02-15T22:29:14.735Z,16.57
2019-02-15T22:31:43.083Z,17.67
2019-02-15T22:34:11.555Z,17.33
2019-02-15T22:36:39.949Z,17.20
2019-02-15T22:39:08.298Z,15.73
2019-02-15T22:41:37.917Z,17.13
2019-02-15T22:44:06.246Z,16.57
2019-02-15T22:46:34.615Z,18.93
2019-02-15T22:49:02.974Z,17.23
2019-02-15T22:51:31.363Z,17.73
2019-02-15T22:53:59.987Z,17.07
2019-02-15T22:56:28.335Z,16.97
2019-02-15T22:58:56.758Z,16.53
2019-02-15T23:01:26.063Z,16.87
2019-02-15T23:03:54.421Z,18.20
2019-02-15T23:06:22.808Z,18.33
2019-02-15T23:08:51.124Z,19.23
2019-02-15T23:11:19.467Z,20.90
2019-02-15T23:13:48.094Z,19.27
2019-02-15T23:16:16.603Z,17.67
2019-02-15T23:18:44.959Z,17.57
2019-02-15T23:21:13.306Z,18.07
2019-02-15T23:23:41.755Z,17.90
2019-02-15T23:26:10.292Z,17.53
2019-02-15T23:28:38.612Z,20.27
2019-02-15T23:31:06.992Z,18.93
2019-02-15T23:33:35.406Z,18.00
2019-02-15T23:36:03.760Z,17.77
2019-02-15T23:38:32.111Z,18.47
2019-02-15T23:41:00.528Z,18.50
2019-02-15T23:43:28.934Z,19.37
2019-02-15T23:45:57.651Z,18.83
2019-02-15T23:48:26.015Z,18.00
2019-02-15T23:50:55.316Z,18.10
2019-02-15T23:53:23.948Z,19.43
2019-02-15T23:55:52.292Z,18.00
2019-02-15T23:58:20.620Z,20.03
